Yokota Air Base
RJTY : now visible

Airfield :











YOU CAN JOIN US ON...

 
LOGIN :

Register | Disclaimer

   EN    FR    IT 

 









Legend :    VFR   Marginal VFR   IFR   Intensive IFR   Very Intensive IFR
Visi :
Ceiling :
>= 8 km
>= 3000ft
5 to 8 km
1000 to 3000 ft
1500m to 5 km
500 to 1000 ft
800 to 1500m
200 to 500 ft
< 800m
< 200 ft
Symbols :   Thunderstorms  Fog  Heavy snow  Heavy precipitations  Wind > 20 kt






- Airport Elevation : 463 ft
- IATA code : OKO


RJTY - Yokota Air Base

CURRENT METAR :
  • 152156Z AUTO 00000KT 10SM CLR 00/M03 A3042 RMK AO2 SLP313 T10041031 FZRANO $

EXPIRED METARs :
  • 152056Z AUTO 00000KT 10SM CLR 00/M02 A3041 RMK AO2 SLP310 T00021022 53000 FZRANO $
  • 151956Z AUTO 00000KT 10SM CLR 02/M02 A3040 RMK AO2 SLP304 T00171016 FZRANO $

TAF TAF RJTY
Valid from the 15 at 21:00 until the 17 at 03:00 UTC


152100Z 1521/1703 VRB06KT 9999 FEW030 QNH3035INS
BECMG 1607/1608 VRB06KT 9999 SCT020 QNH3025INS TX11/1605Z TN00/1521Z



MET'MAP, your aeronautical weather chart ! - Copyright ORBIFLY December 2007 - Disclaimer

ORBIFLY MET'MAP TEAM :

Programming & Development : Alexandra Zaïnal
Concept & original design : Baudouin d'Aumeries
Assistance for programming : Marc-Olivier Méhu
Technical & hardware support : Manuel Goepfert

Contact : metmap@orbifly.com




SOURCES & CREDITS :

   NOAA       Earth
Advisory